createdAt,value
2023-04-07T00:02:12.436Z,18.23
2023-04-07T00:04:41.428Z,14.77
2023-04-07T00:07:08.527Z,16.02
2023-04-07T00:09:35.360Z,20.70
2023-04-07T00:12:07.072Z,19.02
2023-04-07T00:14:36.047Z,17.17
2023-04-07T00:17:02.766Z,17.38
2023-04-07T00:19:29.433Z,19.27
2023-04-07T00:21:56.093Z,18.85
2023-04-07T00:24:33.326Z,18.08
2023-04-07T00:27:01.040Z,17.95
2023-04-07T00:29:27.858Z,17.92
2023-04-07T00:31:56.729Z,18.83
2023-04-07T00:34:23.473Z,16.30
2023-04-07T00:36:52.285Z,19.42
2023-04-07T00:39:19.640Z,17.77
2023-04-07T00:41:46.828Z,18.35
2023-04-07T00:44:14.507Z,17.13
2023-04-07T00:46:42.022Z,18.98
2023-04-07T00:49:11.060Z,18.65
2023-04-07T00:51:38.171Z,17.15
2023-04-07T00:54:05.461Z,16.00
2023-04-07T00:56:32.690Z,20.23
2023-04-07T00:58:59.380Z,20.80
2023-04-07T01:01:32.306Z,20.27
2023-04-07T01:04:08.166Z,19.70
2023-04-07T01:06:40.421Z,22.58
2023-04-07T01:09:09.882Z,20.95
2023-04-07T01:11:57.064Z,17.20
2023-04-07T01:14:24.724Z,17.02
2023-04-07T01:16:54.697Z,15.30
2023-04-07T01:19:24.917Z,14.35
2023-04-07T01:21:52.915Z,15.75
2023-04-07T01:24:30.000Z,17.55
2023-04-07T01:27:08.569Z,16.77
2023-04-07T01:29:40.422Z,15.65
2023-04-07T01:32:13.640Z,16.05
2023-04-07T01:34:41.834Z,15.20
2023-04-07T01:37:09.725Z,14.98
2023-04-07T01:39:38.210Z,18.80
2023-04-07T01:42:06.416Z,16.60
2023-04-07T01:44:38.307Z,17.98
2023-04-07T01:47:06.169Z,17.35
2023-04-07T01:49:35.518Z,21.27
2023-04-07T01:52:02.929Z,19.13
2023-04-07T01:54:29.790Z,19.13
2023-04-07T01:56:56.687Z,18.52
2023-04-07T01:59:23.453Z,19.60
2023-04-07T02:01:50.512Z,17.95
2023-04-07T02:04:35.376Z,17.17
2023-04-07T02:07:10.742Z,17.52
2023-04-07T02:09:40.572Z,14.43
2023-04-07T02:12:12.898Z,17.25
2023-04-07T02:14:40.355Z,14.40
2023-04-07T02:17:10.053Z,18.13
2023-04-07T02:19:36.886Z,16.83
2023-04-07T02:22:07.642Z,15.77
2023-04-07T02:24:34.303Z,14.25
2023-04-07T02:27:02.104Z,16.52
2023-04-07T02:29:28.876Z,15.18
2023-04-07T02:31:56.333Z,15.27
2023-04-07T02:34:23.047Z,14.07
2023-04-07T02:36:52.572Z,14.40
2023-04-07T02:39:19.260Z,15.13
2023-04-07T02:41:46.061Z,16.33
2023-04-07T02:44:15.273Z,13.98
2023-04-07T02:46:44.171Z,17.77
2023-04-07T02:49:13.282Z,14.82
2023-04-07T02:51:39.961Z,16.25
2023-04-07T02:54:06.706Z,15.45
2023-04-07T02:56:35.558Z,15.30
2023-04-07T02:59:04.770Z,12.93
2023-04-07T03:01:31.532Z,15.32
2023-04-07T03:03:58.538Z,13.55
2023-04-07T03:06:27.431Z,12.60
2023-04-07T03:08:54.083Z,14.60
2023-04-07T03:11:23.257Z,17.38
2023-04-07T03:13:49.949Z,13.02
2023-04-07T03:16:16.755Z,12.82
2023-04-07T03:18:43.429Z,12.57
2023-04-07T03:21:13.229Z,14.27
2023-04-07T03:23:42.327Z,12.68
2023-04-07T03:26:09.122Z,13.55
2023-04-07T03:28:38.710Z,12.88
2023-04-07T03:31:05.481Z,10.85
2023-04-07T03:33:32.139Z,12.30
2023-04-07T03:35:58.930Z,14.02
2023-04-07T03:38:26.554Z,12.45
2023-04-07T03:40:55.820Z,14.88
2023-04-07T03:43:22.730Z,10.80
2023-04-07T03:45:51.572Z,13.40
2023-04-07T03:48:18.365Z,12.55
2023-04-07T03:50:46.497Z,12.65
2023-04-07T03:53:16.775Z,11.85
2023-04-07T03:55:43.645Z,9.23
2023-04-07T03:58:10.690Z,9.25
2023-04-07T04:00:37.604Z,10.20
2023-04-07T04:03:06.730Z,10.40
2023-04-07T04:05:33.456Z,15.05
2023-04-07T04:08:00.139Z,10.95
2023-04-07T04:10:27.230Z,11.88
2023-04-07T04:12:53.897Z,10.27
2023-04-07T04:15:22.897Z,11.50
2023-04-07T04:17:49.552Z,11.25
2023-04-07T04:20:18.762Z,11.13
2023-04-07T04:22:47.962Z,15.63
2023-04-07T04:25:17.370Z,9.65
2023-04-07T04:27:44.062Z,10.77
2023-04-07T04:30:11.037Z,9.98
2023-04-07T04:32:37.786Z,11.38
2023-04-07T04:35:07.075Z,10.18
2023-04-07T04:37:33.735Z,12.82
2023-04-07T04:40:00.402Z,10.85
2023-04-07T04:42:27.860Z,11.05
2023-04-07T04:44:54.571Z,11.65
2023-04-07T04:47:21.385Z,9.75
2023-04-07T04:49:48.184Z,9.93
2023-04-07T04:52:14.861Z,11.27
2023-04-07T04:54:41.581Z,11.30
2023-04-07T04:57:08.185Z,9.02
2023-04-07T04:59:37.414Z,8.80
2023-04-07T05:02:04.210Z,11.02
2023-04-07T05:04:31.190Z,9.43
2023-04-07T05:07:02.640Z,9.15
2023-04-07T05:09:31.689Z,11.30
2023-04-07T05:11:58.397Z,12.00
2023-04-07T05:14:25.322Z,9.05
2023-04-07T05:16:52.857Z,10.20
2023-04-07T05:19:21.723Z,14.63
2023-04-07T05:21:48.386Z,10.65
2023-04-07T05:24:15.099Z,10.30
2023-04-07T05:26:41.847Z,7.95
2023-04-07T05:29:11.253Z,9.68
2023-04-07T05:31:41.137Z,10.70
2023-04-07T05:34:07.935Z,9.45
2023-04-07T05:36:37.896Z,8.48
2023-04-07T05:39:04.658Z,8.70
2023-04-07T05:41:33.887Z,7.95
2023-04-07T05:44:00.602Z,11.82
2023-04-07T05:46:29.764Z,8.00
2023-04-07T05:48:56.663Z,8.27
2023-04-07T05:51:28.725Z,9.32
2023-04-07T05:53:57.810Z,8.25
2023-04-07T05:56:24.505Z,8.85
2023-04-07T05:58:53.709Z,9.50
2023-04-07T06:01:26.895Z,8.38
2023-04-07T06:03:53.734Z,10.57
2023-04-07T06:06:22.869Z,9.52
2023-04-07T06:08:51.877Z,10.57
2023-04-07T06:11:21.113Z,9.10
2023-04-07T06:13:48.062Z,12.02
2023-04-07T06:16:16.316Z,10.73
2023-04-07T06:18:46.319Z,8.15
2023-04-07T06:21:15.760Z,11.88
2023-04-07T06:23:44.774Z,9.30
2023-04-07T06:26:12.352Z,9.82
2023-04-07T06:28:41.597Z,8.98
2023-04-07T06:31:08.843Z,12.15
2023-04-07T06:33:35.871Z,11.55
2023-04-07T06:36:02.774Z,7.97
2023-04-07T06:38:31.733Z,8.88
2023-04-07T06:40:58.496Z,8.45
2023-04-07T06:43:25.238Z,7.47
2023-04-07T06:45:51.923Z,9.40
2023-04-07T06:48:18.604Z,8.90
2023-04-07T06:50:52.275Z,9.95
2023-04-07T06:53:18.955Z,8.40
2023-04-07T06:55:45.828Z,8.93
2023-04-07T06:58:15.627Z,7.05
2023-04-07T07:00:42.308Z,9.20
2023-04-07T07:03:09.162Z,6.50
2023-04-07T07:05:36.445Z,8.75
2023-04-07T07:08:03.186Z,8.77
2023-04-07T07:10:32.087Z,9.98
2023-04-07T07:12:58.875Z,9.15
2023-04-07T07:15:27.806Z,8.85
2023-04-07T07:17:56.742Z,6.25
2023-04-07T07:20:23.653Z,6.35
2023-04-07T07:22:50.936Z,5.00
2023-04-07T07:25:17.816Z,9.43
2023-04-07T07:27:44.962Z,9.38
2023-04-07T07:30:11.863Z,5.80
2023-04-07T07:32:41.129Z,6.32
2023-04-07T07:35:10.850Z,7.97
2023-04-07T07:37:40.278Z,7.28
2023-04-07T07:40:09.601Z,7.15
2023-04-07T07:42:38.924Z,7.97
2023-04-07T07:45:06.151Z,8.50
2023-04-07T07:47:33.014Z,7.00
2023-04-07T07:49:59.736Z,9.05
2023-04-07T07:52:26.358Z,6.20
2023-04-07T07:54:53.041Z,10.02
2023-04-07T07:57:19.712Z,9.38
2023-04-07T07:59:46.717Z,8.80
2023-04-07T08:02:15.872Z,6.68
2023-04-07T08:04:45.437Z,7.22
2023-04-07T08:07:17.033Z,11.50
2023-04-07T08:09:43.897Z,11.13
2023-04-07T08:12:10.607Z,11.27
2023-04-07T08:14:39.662Z,11.27
2023-04-07T08:17:06.486Z,8.00
2023-04-07T08:19:35.589Z,10.50
2023-04-07T08:22:02.246Z,8.73
2023-04-07T08:24:32.089Z,7.90
2023-04-07T08:27:01.610Z,9.63
2023-04-07T08:29:32.803Z,6.13
2023-04-07T08:31:59.644Z,7.93
2023-04-07T08:34:28.863Z,7.88
2023-04-07T08:36:55.508Z,10.73
2023-04-07T08:39:22.924Z,10.43
2023-04-07T08:41:50.905Z,10.10
2023-04-07T08:44:21.432Z,10.95
2023-04-07T08:46:49.226Z,11.45
2023-04-07T08:49:18.286Z,8.77
2023-04-07T08:51:51.724Z,9.77
2023-04-07T08:54:19.170Z,8.98
2023-04-07T08:56:46.226Z,8.63
2023-04-07T08:59:18.615Z,8.55
2023-04-07T09:01:46.461Z,7.95
2023-04-07T09:04:16.729Z,9.45
2023-04-07T09:06:45.849Z,8.77
2023-04-07T09:09:15.549Z,9.95
2023-04-07T09:11:44.409Z,11.82
2023-04-07T09:14:11.206Z,6.80
2023-04-07T09:16:40.521Z,10.38
2023-04-07T09:19:07.259Z,8.65
2023-04-07T09:21:51.283Z,8.20
2023-04-07T09:24:21.973Z,6.43
2023-04-07T09:26:50.831Z,9.98
2023-04-07T09:29:23.143Z,11.23
2023-04-07T09:31:52.088Z,8.27
2023-04-07T09:34:40.375Z,7.38
2023-04-07T09:37:11.775Z,9.93
2023-04-07T09:39:50.703Z,7.22
2023-04-07T09:42:17.439Z,7.47
2023-04-07T09:44:44.732Z,9.75
2023-04-07T09:47:13.960Z,7.57
2023-04-07T09:49:54.561Z,9.38
2023-04-07T09:52:47.166Z,7.68
2023-04-07T09:55:15.976Z,8.70
2023-04-07T09:57:45.379Z,7.25
2023-04-07T10:00:12.734Z,8.57
2023-04-07T10:02:39.801Z,8.20
2023-04-07T10:05:07.334Z,8.60
2023-04-07T10:07:34.842Z,6.50
2023-04-07T10:10:01.647Z,5.05
2023-04-07T10:12:28.866Z,5.78
2023-04-07T10:14:57.173Z,5.68
2023-04-07T10:17:24.850Z,9.05
2023-04-07T10:19:52.260Z,6.40
2023-04-07T10:22:25.122Z,5.80
2023-04-07T10:24:58.640Z,6.88
2023-04-07T10:27:36.396Z,4.25
2023-04-07T10:30:11.926Z,5.78
2023-04-07T10:32:52.519Z,5.30
2023-04-07T10:35:21.873Z,8.02
2023-04-07T10:38:06.804Z,6.70
2023-04-07T10:40:36.923Z,5.43
2023-04-07T10:43:11.422Z,6.50
2023-04-07T10:45:52.211Z,3.55
2023-04-07T10:48:20.371Z,4.93
2023-04-07T10:51:21.902Z,4.47
2023-04-07T10:54:23.772Z,8.43
2023-04-07T10:57:02.877Z,6.28
2023-04-07T10:59:30.094Z,4.10
2023-04-07T11:02:15.417Z,5.43
2023-04-07T11:04:49.156Z,6.53
2023-04-07T11:07:16.385Z,5.50
2023-04-07T11:09:43.329Z,5.82
2023-04-07T11:12:22.788Z,3.33
2023-04-07T11:14:51.794Z,6.38
2023-04-07T11:17:21.111Z,5.88
2023-04-07T11:19:54.970Z,4.05
2023-04-07T11:24:53.629Z,5.10
2023-04-07T11:27:23.024Z,4.60
2023-04-07T11:29:50.334Z,5.40
2023-04-07T11:32:26.180Z,4.20
2023-04-07T11:34:55.220Z,4.80
2023-04-07T11:37:24.396Z,6.07
2023-04-07T11:39:54.904Z,4.75
2023-04-07T11:42:37.637Z,4.05
2023-04-07T11:45:06.574Z,2.88
2023-04-07T11:47:39.800Z,2.20
2023-04-07T11:50:07.650Z,3.75
2023-04-07T11:52:51.161Z,5.45
2023-04-07T11:55:24.524Z,4.32
2023-04-07T11:57:56.295Z,3.83
2023-04-07T12:00:23.375Z,5.63
2023-04-07T12:02:53.165Z,2.95
2023-04-07T12:05:22.676Z,4.25
2023-04-07T12:07:57.956Z,4.63
2023-04-07T12:10:26.341Z,4.18
2023-04-07T12:12:53.399Z,3.88
2023-04-07T12:15:20.601Z,2.60
2023-04-07T12:17:51.343Z,2.53
2023-04-07T12:20:20.259Z,2.42
2023-04-07T12:22:47.273Z,2.22
2023-04-07T12:25:13.954Z,1.80
2023-04-07T12:27:43.686Z,4.60
2023-04-07T12:30:12.645Z,3.70
2023-04-07T12:32:42.632Z,2.78
2023-04-07T12:35:09.432Z,2.92
2023-04-07T12:37:38.508Z,4.20
2023-04-07T12:40:08.316Z,2.05
2023-04-07T12:42:34.973Z,4.07
2023-04-07T12:45:03.015Z,2.67
2023-04-07T12:47:32.458Z,3.15
2023-04-07T12:50:04.458Z,2.85
2023-04-07T12:52:33.404Z,1.77
2023-04-07T12:55:00.135Z,2.88
2023-04-07T12:57:32.780Z,2.80
2023-04-07T12:59:59.593Z,2.58
2023-04-07T13:02:26.644Z,3.30
2023-04-07T13:04:55.706Z,3.42
2023-04-07T13:07:24.490Z,2.03
2023-04-07T13:09:51.173Z,1.85
2023-04-07T13:12:17.909Z,2.05
2023-04-07T13:14:57.089Z,3.33
2023-04-07T13:17:26.326Z,3.22
2023-04-07T13:19:53.161Z,2.00
2023-04-07T13:22:22.056Z,1.70
2023-04-07T13:24:52.592Z,1.90
2023-04-07T13:27:21.733Z,1.67
2023-04-07T13:29:48.857Z,1.73
2023-04-07T13:32:15.897Z,2.38
2023-04-07T13:34:42.795Z,2.50
2023-04-07T13:37:09.485Z,3.15
2023-04-07T13:39:38.387Z,2.65
2023-04-07T13:42:05.397Z,1.73
2023-04-07T13:44:34.353Z,1.90
2023-04-07T13:47:01.488Z,3.50
2023-04-07T13:49:30.848Z,4.55
2023-04-07T13:51:57.579Z,2.83
2023-04-07T13:54:29.018Z,3.53
2023-04-07T13:56:55.832Z,6.15
2023-04-07T13:59:24.976Z,0.50
2023-04-07T14:01:51.748Z,2.08
2023-04-07T14:04:18.484Z,1.33
2023-04-07T14:06:47.682Z,0.50
2023-04-07T14:09:14.370Z,0.82
2023-04-07T14:11:41.341Z,1.13
2023-04-07T14:14:10.267Z,2.45
2023-04-07T14:16:37.691Z,1.98
2023-04-07T14:19:04.905Z,1.70
2023-04-07T14:21:31.833Z,1.90
2023-04-07T14:23:58.526Z,3.00
2023-04-07T14:26:26.453Z,3.83
2023-04-07T14:28:53.548Z,3.08
2023-04-07T14:31:20.977Z,1.33
2023-04-07T14:33:48.068Z,1.95
2023-04-07T14:36:18.041Z,1.13
2023-04-07T14:38:46.950Z,1.67
2023-04-07T14:41:13.693Z,2.47
2023-04-07T14:43:41.220Z,1.17
2023-04-07T14:46:08.382Z,1.13
2023-04-07T14:48:37.552Z,2.97
2023-04-07T14:51:10.179Z,1.50
2023-04-07T14:53:39.770Z,3.42
2023-04-07T14:56:09.299Z,2.33
2023-04-07T14:58:37.632Z,2.00
2023-04-07T15:01:07.644Z,3.22
2023-04-07T15:03:37.416Z,1.65
2023-04-07T15:06:10.072Z,1.92
2023-04-07T15:08:37.530Z,2.35
2023-04-07T15:11:10.518Z,1.27
2023-04-07T15:13:37.443Z,1.17
2023-04-07T15:16:14.094Z,0.80
2023-04-07T15:18:42.891Z,1.20
2023-04-07T15:21:10.622Z,1.50
2023-04-07T15:23:38.537Z,1.48
2023-04-07T15:26:06.342Z,1.30
2023-04-07T15:28:33.282Z,1.17
2023-04-07T15:31:02.673Z,1.00
2023-04-07T15:33:29.536Z,1.38
2023-04-07T15:35:57.003Z,1.02
2023-04-07T15:38:26.448Z,1.92
2023-04-07T15:40:55.632Z,1.08
2023-04-07T15:43:22.726Z,1.33
2023-04-07T15:45:49.821Z,1.63
2023-04-07T15:48:18.326Z,1.05
2023-04-07T15:50:45.704Z,0.77
2023-04-07T15:53:15.481Z,1.23
2023-04-07T15:55:44.187Z,1.75
2023-04-07T15:58:13.477Z,0.75
2023-04-07T16:00:40.823Z,1.05
2023-04-07T16:03:08.281Z,2.67
2023-04-07T16:05:35.283Z,1.45
2023-04-07T16:08:04.369Z,3.35
2023-04-07T16:10:33.397Z,2.60
2023-04-07T16:13:02.386Z,1.13
2023-04-07T16:15:39.980Z,2.08
2023-04-07T16:18:12.192Z,2.08
2023-04-07T16:20:46.655Z,1.67
2023-04-07T16:23:18.160Z,1.23
2023-04-07T16:25:45.300Z,1.30
2023-04-07T16:28:14.216Z,1.10
2023-04-07T16:30:41.407Z,2.63
2023-04-07T16:33:08.491Z,3.92
2023-04-07T16:35:35.731Z,2.55
2023-04-07T16:38:05.949Z,1.38
2023-04-07T16:40:32.915Z,2.22
2023-04-07T16:42:59.927Z,2.50
2023-04-07T16:45:27.037Z,5.45
2023-04-07T16:47:53.850Z,1.92
2023-04-07T16:50:21.568Z,3.65
2023-04-07T16:52:48.278Z,3.13
2023-04-07T16:55:15.059Z,1.80
2023-04-07T16:57:42.018Z,1.60
2023-04-07T17:00:09.272Z,2.83
2023-04-07T17:02:38.778Z,3.03
2023-04-07T17:05:06.200Z,5.43
2023-04-07T17:07:33.226Z,4.82
2023-04-07T17:10:00.387Z,2.72
2023-04-07T17:12:29.371Z,2.45
2023-04-07T17:14:56.221Z,2.70
2023-04-07T17:17:23.115Z,3.78
2023-04-07T17:19:50.004Z,3.35
2023-04-07T17:22:16.828Z,2.83
2023-04-07T17:24:43.856Z,2.65
2023-04-07T17:27:13.169Z,5.13
2023-04-07T17:29:39.926Z,8.70
2023-04-07T17:32:07.939Z,3.55
2023-04-07T17:34:34.806Z,4.25
2023-04-07T17:37:01.552Z,4.20
2023-04-07T17:39:28.432Z,5.15
2023-04-07T17:41:57.615Z,5.20
2023-04-07T17:44:24.340Z,4.72
2023-04-07T17:46:51.536Z,5.85
2023-04-07T17:49:18.733Z,7.68
2023-04-07T17:51:47.828Z,7.05
2023-04-07T17:54:16.252Z,5.68
2023-04-07T17:56:46.262Z,4.50
2023-04-07T17:59:13.528Z,7.90
2023-04-07T18:01:42.998Z,5.68
2023-04-07T18:04:10.312Z,6.93
2023-04-07T18:06:37.352Z,4.68
2023-04-07T18:09:04.953Z,4.68
2023-04-07T18:11:32.840Z,6.53
2023-04-07T18:14:00.583Z,12.13
2023-04-07T18:16:27.746Z,7.32
2023-04-07T18:18:56.979Z,9.27
2023-04-07T18:21:24.112Z,6.20
2023-04-07T18:23:51.431Z,8.57
2023-04-07T18:26:18.354Z,10.23
2023-04-07T18:28:45.197Z,9.50
2023-04-07T18:31:12.553Z,7.60
2023-04-07T18:33:39.563Z,6.53
2023-04-07T18:36:07.830Z,7.38
2023-04-07T18:38:39.202Z,7.38
2023-04-07T18:41:09.617Z,9.25
2023-04-07T18:43:36.543Z,7.90
2023-04-07T18:46:03.827Z,7.35
2023-04-07T18:48:33.344Z,6.53
2023-04-07T18:51:00.460Z,7.40
2023-04-07T18:53:27.490Z,8.43
2023-04-07T18:55:54.414Z,7.53
2023-04-07T18:58:26.514Z,9.13
2023-04-07T19:00:54.782Z,10.23
2023-04-07T19:03:22.165Z,10.25
2023-04-07T19:05:52.510Z,9.25
2023-04-07T19:08:20.072Z,9.43
2023-04-07T19:10:48.056Z,7.72
2023-04-07T19:13:16.355Z,7.05
2023-04-07T19:15:46.314Z,10.85
2023-04-07T19:18:13.581Z,7.75
2023-04-07T19:20:40.660Z,8.45
2023-04-07T19:23:08.062Z,8.95
2023-04-07T19:25:35.557Z,10.90
2023-04-07T19:28:03.567Z,8.77
2023-04-07T19:30:30.519Z,9.25
2023-04-07T19:32:59.917Z,10.07
2023-04-07T19:35:27.253Z,7.15
2023-04-07T19:37:56.870Z,8.00
2023-04-07T19:40:24.785Z,7.22
2023-04-07T19:42:51.958Z,7.28
2023-04-07T19:45:19.194Z,9.02
2023-04-07T19:47:47.380Z,9.20
2023-04-07T19:50:17.569Z,10.68
2023-04-07T19:52:45.523Z,9.43
2023-04-07T19:55:16.851Z,8.10
2023-04-07T19:57:43.696Z,10.35
2023-04-07T20:00:11.831Z,8.82
2023-04-07T20:02:39.004Z,9.10
2023-04-07T20:05:06.141Z,9.02
2023-04-07T20:07:33.365Z,8.73
2023-04-07T20:10:03.845Z,7.47
2023-04-07T20:12:30.766Z,9.50
2023-04-07T20:14:59.921Z,7.97
2023-04-07T20:17:26.750Z,7.82
2023-04-07T20:19:55.261Z,10.50
2023-04-07T20:22:22.858Z,11.38
2023-04-07T20:24:51.894Z,9.63
2023-04-07T20:27:21.187Z,13.85
2023-04-07T20:29:48.066Z,10.38
2023-04-07T20:32:17.228Z,10.02
2023-04-07T20:34:48.218Z,11.05
2023-04-07T20:37:17.828Z,9.98
2023-04-07T20:39:44.840Z,13.52
2023-04-07T20:42:14.001Z,12.02
2023-04-07T20:44:40.969Z,10.65
2023-04-07T20:47:12.429Z,10.73
2023-04-07T20:49:41.155Z,9.15
2023-04-07T20:52:10.602Z,8.73
2023-04-07T20:54:37.388Z,9.23
2023-04-07T20:57:04.108Z,9.85
2023-04-07T20:59:31.962Z,9.40
2023-04-07T21:02:01.447Z,9.00
2023-04-07T21:04:28.485Z,7.53
2023-04-07T21:06:57.466Z,10.15
2023-04-07T21:09:24.132Z,8.93
2023-04-07T21:11:50.940Z,9.00
2023-04-07T21:14:17.701Z,6.55
2023-04-07T21:16:44.787Z,7.97
2023-04-07T21:19:11.555Z,7.78
2023-04-07T21:21:40.712Z,8.40
2023-04-07T21:24:09.689Z,4.97
2023-04-07T21:26:38.686Z,8.27
2023-04-07T21:29:05.433Z,9.52
2023-04-07T21:31:35.271Z,10.25
2023-04-07T21:34:02.247Z,12.00
2023-04-07T21:36:29.220Z,12.23
2023-04-07T21:38:56.029Z,12.57
2023-04-07T21:41:22.871Z,13.15
2023-04-07T21:43:49.790Z,11.80
2023-04-07T21:46:16.823Z,12.38
2023-04-07T21:48:46.104Z,10.25
2023-04-07T21:51:12.858Z,12.30
2023-04-07T21:53:40.467Z,11.20
2023-04-07T21:56:10.321Z,11.90
2023-04-07T21:58:39.274Z,12.65
2023-04-07T22:01:06.012Z,13.18
2023-04-07T22:03:32.895Z,14.55
2023-04-07T22:06:00.357Z,14.43
2023-04-07T22:08:27.274Z,11.55
2023-04-07T22:10:54.531Z,12.73
2023-04-07T22:13:21.182Z,12.32
2023-04-07T22:15:47.980Z,15.25
2023-04-07T22:18:17.008Z,14.13
2023-04-07T22:20:43.735Z,12.82
2023-04-07T22:23:10.667Z,11.88
2023-04-07T22:25:37.323Z,11.50
2023-04-07T22:28:03.958Z,12.45
2023-04-07T22:30:30.725Z,11.77
2023-04-07T22:32:57.484Z,11.88
2023-04-07T22:35:26.427Z,14.23
2023-04-07T22:37:53.194Z,11.13
2023-04-07T22:40:19.905Z,10.98
2023-04-07T22:42:46.482Z,11.48
2023-04-07T22:45:15.319Z,9.63
2023-04-07T22:47:42.053Z,11.93
2023-04-07T22:50:09.196Z,12.68
2023-04-07T22:52:37.969Z,12.75
2023-04-07T22:55:05.188Z,10.43
2023-04-07T22:57:34.426Z,11.00
2023-04-07T23:00:01.053Z,9.13
2023-04-07T23:02:27.814Z,12.32
2023-04-07T23:04:55.201Z,11.13
2023-04-07T23:07:21.893Z,11.95
2023-04-07T23:09:48.565Z,12.90
2023-04-07T23:12:15.575Z,12.13
2023-04-07T23:14:42.250Z,10.70
2023-04-07T23:17:09.026Z,11.35
2023-04-07T23:19:38.026Z,10.85
2023-04-07T23:22:04.774Z,9.18
2023-04-07T23:24:33.914Z,13.88
2023-04-07T23:27:02.851Z,9.98
2023-04-07T23:29:29.542Z,12.75
2023-04-07T23:31:56.546Z,11.68
2023-04-07T23:34:23.236Z,12.15
2023-04-07T23:36:52.898Z,8.48
2023-04-07T23:39:19.658Z,10.05
2023-04-07T23:41:46.742Z,9.63
2023-04-07T23:44:13.411Z,9.85
2023-04-07T23:46:42.965Z,7.60
2023-04-07T23:49:12.052Z,10.43
2023-04-07T23:51:40.977Z,10.98
2023-04-07T23:54:07.745Z,9.07
2023-04-07T23:56:34.478Z,14.52
2023-04-07T23:59:01.173Z,9.20
